| time (UTC) | temp C | wind direction | speed KPH | gust KPH | rain 1hr cm | rain 24hr cm | rain mn cm | humidity % | barometer mb |
| 20260508054515 | 9 | 120 | 9.7 | 19.3 | 0.00 | 0.03 | 0.00 | 93 | 1013.8 |
| 20260508053515 | 9 | 115 | 8.0 | 14.5 | 0.00 | 0.03 | 0.00 | 93 | 1013.7 |
| 20260508052515 | 8 | 115 | 9.7 | 17.7 | 0.00 | 0.03 | 0.00 | 93 | 1013.8 |
| 20260508051556 | 8 | 118 | 6.4 | 14.5 | 0.00 | 0.03 | 0.00 | 93 | 1013.8 |
| 20260508050515 | 8 | 117 | 4.8 | 11.3 | 0.00 | 0.03 | 0.00 | 92 | 1013.8 |
| 20260508045535 | 9 | 116 | 6.4 | 14.5 | 0.00 | 0.03 | 0.00 | 92 | 1013.8 |
| 20260508044515 | 9 | 123 | 8.0 | 16.1 | 0.00 | 0.03 | 0.00 | 92 | 1013.7 |
| 20260508043515 | 9 | 125 | 9.7 | 17.7 | 0.00 | 0.03 | 0.00 | 92 | 1013.7 |
| 20260508042515 | 9 | 120 | 6.4 | 16.1 | 0.00 | 0.03 | 0.00 | 91 | 1013.6 |
| 20260508041516 | 9 | 123 | 3.2 | 14.5 | 0.00 | 0.03 | 0.00 | 91 | 1013.6 |
| 20260508040515 | 9 | 121 | 6.4 | 19.3 | 0.00 | 0.03 | 0.00 | 91 | 1013.6 |
| 20260508035515 | 9 | 125 | 9.7 | 17.7 | 0.00 | 0.03 | 0.00 | 91 | 1013.7 |
| 20260508034515 | 9 | 127 | 8.0 | 22.5 | 0.00 | 0.03 | 0.00 | 90 | 1013.6 |
| 20260508033535 | 9 | 122 | 11.3 | 22.5 | 0.00 | 0.03 | 0.00 | 90 | 1013.6 |
| 20260508032514 | 10 | 120 | 12.9 | 22.5 | 0.00 | 0.03 | 0.00 | 89 | 1013.7 |
| 20260508031515 | 10 | 123 | 17.7 | 27.4 | 0.00 | 0.03 | 0.00 | 89 | 1013.8 |
| 20260508030515 | 10 | 108 | 11.3 | 22.5 | 0.00 | 0.03 | 0.00 | 88 | 1013.8 |
| 20260508025517 | 10 | 118 | 9.7 | 19.3 | 0.00 | 0.05 | 0.00 | 87 | 1014.0 |
| 20260508024517 | 10 | 114 | 11.3 | 17.7 | 0.00 | 0.05 | 0.00 | 87 | 1014.2 |
| 20260508023517 | 10 | 120 | 11.3 | 19.3 | 0.00 | 0.05 | 0.00 | 87 | 1014.3 |
| 20260508022556 | 10 | 125 | 6.4 | 12.9 | 0.00 | 0.05 | 0.00 | 88 | 1014.3 |
| 20260508021517 | 10 | 132 | 8.0 | 16.1 | 0.00 | 0.05 | 0.00 | 88 | 1014.3 |
| 20260508020517 | 10 | 124 | 11.3 | 20.9 | 0.00 | 0.05 | 0.00 | 89 | 1014.2 |
| 20260508015517 | 10 | 116 | 8.0 | 17.7 | 0.00 | 0.05 | 0.00 | 88 | 1014.2 |
| 20260508014517 | 10 | 115 | 4.8 | 16.1 | 0.00 | 0.05 | 0.00 | 87 | 1014.2 |
| 20260508013537 | 10 | 128 | 9.7 | 16.1 | 0.00 | 0.05 | 0.00 | 86 | 1014.2 |
| 20260508012517 | 10 | 114 | 8.0 | 20.9 | 0.00 | 0.05 | 0.00 | 85 | 1014.3 |
| 20260508011516 | 10 | 123 | 11.3 | 19.3 | 0.00 | 0.05 | 0.00 | 84 | 1014.4 |
| 20260508010516 | 10 | 120 | 8.0 | 16.1 | 0.00 | 0.05 | 0.00 | 83 | 1014.5 |
| 20260508005517 | 10 | 117 | 6.4 | 14.5 | 0.00 | 0.05 | 0.00 | 83 | 1014.5 |
| 20260508004517 | 10 | 128 | 4.8 | 12.9 | 0.00 | 0.05 | 0.00 | 83 | 1014.6 |
| 20260508003537 | 10 | 121 | 6.4 | 17.7 | 0.00 | 0.05 | 0.00 | 83 | 1014.7 |
| 20260508002516 | 10 | 116 | 9.7 | 17.7 | 0.00 | 0.05 | 0.00 | 84 | 1014.6 |
| 20260508001517 | 10 | 130 | 8.0 | 12.9 | 0.00 | 0.05 | 0.00 | 85 | 1014.7 |
| 20260508000537 | 10 | 119 | 8.0 | 14.5 | 0.00 | 0.05 | 0.00 | 85 | 1014.8 |
| 20260507235516 | 10 | 133 | 6.4 | 14.5 | 0.00 | 0.05 | 0.00 | 84 | 1014.8 |
| 20260507234517 | 10 | 122 | 11.3 | 24.1 | 0.00 | 0.05 | 0.00 | 83 | 1014.9 |
| 20260507233517 | 10 | 121 | 12.9 | 20.9 | 0.00 | 0.05 | 0.00 | 82 | 1014.9 |
| 20260507232516 | 10 | 122 | 11.3 | 17.7 | 0.00 | 0.05 | 0.00 | 81 | 1014.9 |
| 20260507231537 | 10 | 125 | 11.3 | 22.5 | 0.00 | 0.05 | 0.00 | 80 | 1014.8 |
| 20260507225515 | 10 | 122 | 8.0 | 16.1 | 0.00 | 0.05 | 0.05 | 79 | 1014.8 |
| 20260507224515 | 10 | 130 | 6.4 | 12.9 | 0.00 | 0.05 | 0.05 | 80 | 1014.9 |
| 20260507223516 | 10 | 130 | 4.8 | 11.3 | 0.00 | 0.05 | 0.05 | 81 | 1015.0 |
| 20260507222515 | 10 | 131 | 6.4 | 14.5 | 0.00 | 0.05 | 0.05 | 81 | 1015.0 |
| 20260507221515 | 10 | 119 | 8.0 | 14.5 | 0.00 | 0.05 | 0.05 | 82 | 1014.9 |
| 20260507220515 | 10 | 128 | 4.8 | 14.5 | 0.00 | 0.05 | 0.05 | 82 | 1015.0 |
| 20260507215515 | 10 | 127 | 8.0 | 14.5 | 0.00 | 0.05 | 0.05 | 81 | 1015.0 |
| 20260507214515 | 10 | 120 | 9.7 | 17.7 | 0.00 | 0.05 | 0.05 | 82 | 1015.1 |
| 20260507213515 | 10 | 121 | 9.7 | 17.7 | 0.00 | 0.05 | 0.05 | 82 | 1015.1 |
| 20260507212515 | 10 | 119 | 9.7 | 16.1 | 0.00 | 0.05 | 0.05 | 83 | 1015.0 |
| 20260507211515 | 10 | 111 | 8.0 | 16.1 | 0.00 | 0.05 | 0.05 | 83 | 1014.9 |
| 20260507210514 | 10 | 112 | 6.4 | 16.1 | 0.00 | 0.05 | 0.05 | 83 | 1014.9 |
| 20260507205517 | 10 | 112 | 6.4 | 14.5 | 0.00 | 0.05 | 0.05 | 83 | 1014.9 |
| 20260507204536 | 10 | 117 | 6.4 | 14.5 | 0.00 | 0.05 | 0.05 | 81 | 1014.8 |
| 20260507203517 | 10 | 113 | 6.4 | 14.5 | 0.00 | 0.05 | 0.05 | 80 | 1014.7 |
| 20260507202537 | 10 | 113 | 6.4 | 11.3 | 0.00 | 0.05 | 0.05 | 79 | 1014.7 |
| 20260507201557 | 11 | 105 | 4.8 | 12.9 | 0.00 | 0.05 | 0.05 | 77 | 1014.6 |
| 20260507200516 | 11 | 113 | 4.8 | 9.7 | 0.00 | 0.05 | 0.05 | 76 | 1014.5 |
| 20260507195556 | 11 | 116 | 3.2 | 6.4 | 0.00 | 0.05 | 0.05 | 74 | 1014.5 |
| 20260507194517 | 11 | 117 | 3.2 | 9.7 | 0.00 | 0.05 | 0.05 | 74 | 1014.4 |
| 20260507193557 | 11 | 121 | 3.2 | 8.0 | 0.00 | 0.05 | 0.05 | 72 | 1014.4 |
| 20260507192517 | 11 | 128 | 4.8 | 8.0 | 0.00 | 0.05 | 0.05 | 71 | 1014.4 |
| 20260507191537 | 11 | 133 | 3.2 | 12.9 | 0.00 | 0.05 | 0.05 | 71 | 1014.4 |
| 20260507190517 | 11 | 123 | 4.8 | 12.9 | 0.00 | 0.05 | 0.05 | 71 | 1014.4 |
| 20260507185516 | 12 | 126 | 4.8 | 11.3 | 0.00 | 0.05 | 0.05 | 71 | 1014.4 |
| 20260507184536 | 12 | 137 | 4.8 | 8.0 | 0.00 | 0.05 | 0.05 | 71 | 1014.4 |
| 20260507183516 | 12 | 141 | 3.2 | 11.3 | 0.00 | 0.05 | 0.05 | 69 | 1014.4 |
| 20260507182536 | 12 | 126 | 6.4 | 14.5 | 0.00 | 0.05 | 0.05 | 68 | 1014.4 |
| 20260507181516 | 12 | 134 | 8.0 | 14.5 | 0.00 | 0.05 | 0.05 | 69 | 1014.4 |
| 20260507180516 | 12 | 128 | 6.4 | 16.1 | 0.00 | 0.05 | 0.05 | 69 | 1014.3 |
| 20260507175516 | 12 | 170 | 6.4 | 14.5 | 0.00 | 0.05 | 0.05 | 69 | 1014.3 |
| 20260507174517 | 13 | 126 | 6.4 | 16.1 | 0.00 | 0.05 | 0.05 | 70 | 1014.3 |
| 20260507173517 | 13 | 126 | 8.0 | 14.5 | 0.00 | 0.05 | 0.05 | 71 | 1014.3 |
| 20260507172517 | 12 | 166 | 4.8 | 12.9 | 0.00 | 0.05 | 0.05 | 72 | 1014.4 |
| 20260507171517 | 13 | 137 | 8.0 | 16.1 | 0.00 | 0.05 | 0.05 | 70 | 1014.6 |
| 20260507170516 | 13 | 142 | 6.4 | 14.5 | 0.00 | 0.05 | 0.05 | 70 | 1014.5 |
| 20260507165536 | 13 | 115 | 8.0 | 14.5 | 0.00 | 0.05 | 0.05 | 72 | 1014.5 |
| 20260507164536 | 12 | 123 | 8.0 | 16.1 | 0.00 | 0.05 | 0.05 | 75 | 1014.5 |
| 20260507163516 | 12 | 132 | 6.4 | 16.1 | 0.00 | 0.05 | 0.05 | 75 | 1014.5 |
| 20260507162516 | 12 | 126 | 8.0 | 16.1 | 0.00 | 0.05 | 0.05 | 76 | 1014.5 |
| 20260507161516 | 12 | 114 | 8.0 | 16.1 | 0.00 | 0.05 | 0.05 | 76 | 1014.5 |
| 20260507160516 | 12 | 117 | 6.4 | 12.9 | 0.00 | 0.05 | 0.05 | 76 | 1014.5 |
| 20260507155516 | 12 | 122 | 8.0 | 16.1 | 0.00 | 0.13 | 0.05 | 75 | 1014.6 |
| 20260507154516 | 12 | 123 | 9.7 | 17.7 | 0.00 | 0.13 | 0.05 | 75 | 1014.7 |
| 20260507153516 | 12 | 117 | 6.4 | 19.3 | 0.00 | 0.13 | 0.05 | 79 | 1014.7 |
| 20260507152516 | 11 | 167 | 11.3 | 20.9 | 0.00 | 0.13 | 0.05 | 76 | 1014.8 |
| 20260507151516 | 11 | 175 | 12.9 | 22.5 | 0.00 | 0.13 | 0.05 | 74 | 1014.8 |
| 20260507150516 | 12 | 176 | 9.7 | 20.9 | 0.00 | 0.13 | 0.05 | 74 | 1014.8 |
| 20260507145516 | 12 | 173 | 11.3 | 25.7 | 0.00 | 0.18 | 0.05 | 73 | 1014.8 |
| 20260507144516 | 12 | 176 | 9.7 | 17.7 | 0.00 | 0.18 | 0.05 | 74 | 1014.9 |
| 20260507143516 | 12 | 169 | 8.0 | 19.3 | 0.00 | 0.18 | 0.05 | 77 | 1014.9 |
| 20260507142516 | 12 | 238 | 4.8 | 14.5 | 0.00 | 0.18 | 0.05 | 82 | 1014.9 |
| 20260507141516 | 11 | 194 | 3.2 | 6.4 | 0.03 | 0.18 | 0.05 | 83 | 1015.0 |
| 20260507140516 | 11 | 181 | 1.6 | 4.8 | 0.03 | 0.18 | 0.05 | 84 | 1015.1 |
| 20260507135515 | 10 | 178 | 3.2 | 6.4 | 0.03 | 0.25 | 0.05 | 83 | 1015.1 |
| 20260507134536 | 10 | 176 | 1.6 | 9.7 | 0.03 | 0.25 | 0.05 | 85 | 1015.1 |
| 20260507133516 | 10 | 175 | 3.2 | 6.4 | 0.03 | 0.25 | 0.05 | 84 | 1015.2 |
| 20260507132516 | 10 | 175 | 3.2 | 12.9 | 0.03 | 0.25 | 0.05 | 84 | 1015.4 |
| 20260507131516 | 10 | 177 | 11.3 | 25.7 | 0.00 | 0.23 | 0.03 | 79 | 1015.5 |
| 20260507130535 | 10 | 169 | 12.9 | 22.5 | 0.00 | 0.23 | 0.03 | 77 | 1015.3 |
| 20260507125536 | 10 | 167 | 8.0 | 19.3 | 0.00 | 0.23 | 0.03 | 76 | 1015.3 |
| 20260507124535 | 11 | 166 | 8.0 | 20.9 | 0.00 | 0.23 | 0.03 | 76 | 1015.4 |
| 20260507123516 | 11 | 171 | 11.3 | 24.1 | 0.00 | 0.23 | 0.03 | 76 | 1015.4 |
| 20260507122515 | 11 | 170 | 14.5 | 25.7 | 0.00 | 0.23 | 0.03 | 71 | 1015.5 |
| 20260507121516 | 11 | 193 | 6.4 | 16.1 | 0.00 | 0.23 | 0.03 | 70 | 1015.5 |
| 20260507120515 | 11 | 165 | 11.3 | 22.5 | 0.00 | 0.23 | 0.03 | 70 | 1015.5 |
| 20260507115516 | 12 | 168 | 9.7 | 16.1 | 0.00 | 0.23 | 0.03 | 81 | 1015.6 |
| 20260507114515 | 11 | 155 | 8.0 | 17.7 | 0.00 | 0.23 | 0.03 | 83 | 1015.6 |
| 20260507113515 | 12 | 172 | 11.3 | 17.7 | 0.00 | 0.23 | 0.03 | 80 | 1015.7 |
| 20260507112515 | 12 | 136 | 6.4 | 16.1 | 0.00 | 0.23 | 0.03 | 81 | 1015.6 |
| 20260507111516 | 12 | 173 | 8.0 | 19.3 | 0.00 | 0.23 | 0.03 | 80 | 1015.6 |
| 20260507110515 | 12 | 131 | 9.7 | 19.3 | 0.00 | 0.23 | 0.03 | 84 | 1015.6 |
| 20260507105515 | 12 | 144 | 11.3 | 17.7 | 0.00 | 0.23 | 0.03 | 85 | 1015.6 |
| 20260507104515 | 11 | 165 | 8.0 | 17.7 | 0.00 | 0.23 | 0.03 | 86 | 1015.6 |
| 20260507103535 | 11 | 152 | 9.7 | 19.3 | 0.00 | 0.23 | 0.03 | 87 | 1015.6 |
| 20260507102535 | 11 | 168 | 11.3 | 22.5 | 0.00 | 0.23 | 0.03 | 86 | 1015.6 |
| 20260507101517 | 11 | 136 | 9.7 | 19.3 | 0.00 | 0.23 | 0.03 | 89 | 1015.7 |
| 20260507100516 | 11 | 156 | 11.3 | 22.5 | 0.00 | 0.23 | 0.03 | 91 | 1015.7 |
| 20260507095515 | 10 | 152 | 8.0 | 17.7 | 0.00 | 0.23 | 0.03 | 94 | 1015.6 |
| 20260507094515 | 10 | 171 | 8.0 | 16.1 | 0.00 | 0.23 | 0.03 | 95 | 1015.6 |
| 20260507093515 | 10 | 163 | 8.0 | 19.3 | 0.00 | 0.23 | 0.03 | 95 | 1015.6 |
| 20260507092515 | 10 | 154 | 8.0 | 19.3 | 0.00 | 0.23 | 0.03 | 96 | 1015.6 |
| 20260507091516 | 10 | 150 | 8.0 | 17.7 | 0.00 | 0.23 | 0.03 | 96 | 1015.5 |
| 20260507090515 | 10 | 165 | 11.3 | 22.5 | 0.00 | 0.23 | 0.03 | 97 | 1015.5 |
| 20260507085516 | 10 | 163 | 9.7 | 22.5 | 0.00 | 0.23 | 0.03 | 97 | 1015.5 |
| 20260507084516 | 10 | 164 | 9.7 | 17.7 | 0.00 | 0.23 | 0.03 | 98 | 1015.5 |
| 20260507083515 | 9 | 160 | 9.7 | 22.5 | 0.00 | 0.23 | 0.03 | 98 | 1015.5 |
| 20260507082515 | 9 | 159 | 9.7 | 20.9 | 0.00 | 0.23 | 0.03 | 98 | 1015.4 |
| 20260507081516 | 9 | 169 | 12.9 | 20.9 | 0.00 | 0.23 | 0.03 | 99 | 1015.5 |
| 20260507080655 | 9 | 165 | 8.0 | 17.7 | 0.00 | 0.23 | 0.03 | 98 | 1015.5 |
| 20260507075515 | 9 | 156 | 8.0 | 17.7 | 0.00 | 0.23 | 0.03 | 99 | 1015.4 |
| 20260507074515 | 9 | 153 | 9.7 | 16.1 | 0.00 | 0.23 | 0.03 | 99 | 1015.4 |
| 20260507073515 | 8 | 165 | 8.0 | 14.5 | 0.00 | 0.23 | 0.03 | 98 | 1015.3 |
| 20260507072515 | 8 | 160 | 6.4 | 14.5 | 0.00 | 0.23 | 0.03 | 98 | 1015.3 |
| 20260507071516 | 8 | 174 | 6.4 | 12.9 | 0.00 | 0.23 | 0.03 | 99 | 1015.2 |
| 20260507070515 | 8 | 173 | 8.0 | 12.9 | 0.00 | 0.23 | 0.03 | 98 | 1015.1 |
| 20260507065535 | 8 | 162 | 4.8 | 12.9 | 0.00 | 0.23 | 0.03 | 99 | 1015.1 |
| 20260507064515 | 8 | 143 | 3.2 | 9.7 | 0.00 | 0.23 | 0.03 | 98 | 1015.1 |
| 20260507063515 | 8 | 161 | 1.6 | 6.4 | 0.00 | 0.23 | 0.03 | 98 | 1015.1 |
| 20260507062515 | 7 | 163 | 1.6 | 6.4 | 0.00 | 0.23 | 0.03 | 98 | 1015.1 |
| 20260507061516 | 7 | 161 | 1.6 | 6.4 | 0.00 | 0.23 | 0.03 | 98 | 1015.1 |
| 20260507060515 | 7 | 154 | 3.2 | 8.0 | 0.00 | 0.23 | 0.03 | 98 | 1015.0 |
| 20260507055515 | 7 | 147 | 3.2 | 8.0 | 0.00 | 0.23 | 0.03 | 98 | 1014.9 |